Time;durP1;ratioP1;P1;durP2;ratioP2;P2;SDS_P1;SDS_P2;PMS_P1;PMS_P2;Temp;Humidity;BMP_temperature;BMP_pressure;BME280_temperature;BME280_humidity;BME280_pressure;Samples;Min_cycle;Max_cycle;Signal;HPM_P1;HPM_P2
2024/01/09 00:00:51;;;;;;;8.77;7.33;;;0.50;99.90;;;;;;5055446;28;20651;-77
2024/01/09 00:03:16;;;;;;;11.53;7.87;;;0.30;99.90;;;;;;5053509;28;20183;-75
2024/01/09 00:05:42;;;;;;;9.97;7.90;;;0.30;99.90;;;;;;5057238;28;20193;-76
2024/01/09 00:08:08;;;;;;;9.97;7.57;;;0.50;99.90;;;;;;5062735;28;20254;-78
2024/01/09 00:10:34;;;;;;;10.03;7.60;;;0.60;99.90;;;;;;5056885;28;20223;-77
2024/01/09 00:13:00;;;;;;;9.97;7.90;;;0.50;99.90;;;;;;5055305;28;20229;-76
2024/01/09 00:15:25;;;;;;;10.23;7.10;;;0.40;99.90;;;;;;5063417;28;20190;-78
2024/01/09 00:17:52;;;;;;;9.73;7.50;;;0.30;99.90;;;;;;5067393;28;20235;-76
2024/01/09 00:20:19;;;;;;;10.23;8.33;;;0.50;99.90;;;;;;5053302;28;20659;-79
2024/01/09 00:22:45;;;;;;;10.23;7.60;;;0.50;99.90;;;;;;5055954;28;20182;-78
2024/01/09 00:25:11;;;;;;;11.80;8.00;;;0.30;99.90;;;;;;5058409;28;20192;-75
2024/01/09 00:27:37;;;;;;;14.27;8.50;;;0.30;99.90;;;;;;5059288;28;20178;-79
2024/01/09 00:30:03;;;;;;;10.93;8.07;;;0.20;99.90;;;;;;5059267;28;20178;-80
2024/01/09 00:32:29;;;;;;;10.47;7.67;;;0.20;99.90;;;;;;5059016;28;20179;-78
2024/01/09 00:34:55;;;;;;;8.77;7.70;;;0.40;99.90;;;;;;5061684;28;20183;-79
2024/01/09 00:37:21;;;;;;;11.33;8.00;;;0.30;99.90;;;;;;5075078;28;20305;-79
2024/01/09 00:39:48;;;;;;;11.93;7.87;;;0.30;99.90;;;;;;5060202;28;20599;-78
2024/01/09 00:42:14;;;;;;;10.70;8.10;;;0.30;99.90;;;;;;5061502;28;20210;-77
2024/01/09 00:44:43;;;;;;;12.40;8.10;;;0.40;99.90;;;;;;5059803;28;20207;-78
2024/01/09 00:47:08;;;;;;;10.73;8.33;;;0.40;99.90;;;;;;5061013;28;20193;-79
2024/01/09 00:49:34;;;;;;;10.97;8.07;;;0.60;99.90;;;;;;5059082;28;20187;-79
2024/01/09 00:52:00;;;;;;;10.03;7.67;;;0.50;99.90;;;;;;5059546;28;20214;-77
2024/01/09 00:54:26;;;;;;;12.07;7.77;;;0.60;99.90;;;;;;5058835;28;20182;-78
2024/01/09 00:56:52;;;;;;;9.67;7.80;;;0.50;99.90;;;;;;5058873;28;20272;-79
2024/01/09 00:59:18;;;;;;;13.53;8.00;;;0.70;99.90;;;;;;5057535;28;20229;-80
2024/01/09 01:01:50;;;;;;;11.53;7.80;;;0.60;99.90;;;;;;5057232;28;20191;-78
2024/01/09 01:04:16;;;;;;;14.20;8.07;;;0.80;99.90;;;;;;5059264;28;20164;-79
2024/01/09 01:06:44;;;;;;;10.33;7.80;;;0.70;99.90;;;;;;5058802;28;20183;-80
2024/01/09 01:09:10;;;;;;;11.57;8.33;;;0.70;99.90;;;;;;5050439;28;20235;-78
2024/01/09 01:11:36;;;;;;;7.87;7.03;;;0.70;99.90;;;;;;5045198;28;20180;-80
2024/01/09 01:14:02;;;;;;;13.23;7.80;;;0.70;99.90;;;;;;5045202;28;20209;-81
2024/01/09 01:16:28;;;;;;;8.63;7.00;;;0.60;99.90;;;;;;5057821;28;20153;-79
2024/01/09 01:18:54;;;;;;;11.40;7.43;;;0.70;99.90;;;;;;5056236;28;20212;-78
2024/01/09 01:21:20;;;;;;;11.93;9.27;;;0.90;99.90;;;;;;5051375;28;20352;-77
2024/01/09 01:23:46;;;;;;;11.53;7.80;;;1.00;99.90;;;;;;5047843;28;20663;-76
2024/01/09 01:26:11;;;;;;;10.00;7.97;;;1.00;99.90;;;;;;5042154;28;20263;-80
2024/01/09 01:28:37;;;;;;;11.90;8.00;;;1.00;99.90;;;;;;5043142;28;20179;-77
2024/01/09 01:31:04;;;;;;;9.87;7.33;;;1.00;99.90;;;;;;5040951;28;20178;-75
2024/01/09 01:33:30;;;;;;;10.90;7.50;;;1.00;99.90;;;;;;5039640;28;20172;-78
2024/01/09 01:35:56;;;;;;;9.17;7.43;;;0.90;99.90;;;;;;5037304;28;20203;-79
2024/01/09 01:38:22;;;;;;;9.03;7.13;;;1.00;99.90;;;;;;5036354;28;20244;-76
2024/01/09 01:40:48;;;;;;;8.67;6.73;;;1.00;99.90;;;;;;5036868;28;20172;-77
2024/01/09 01:43:13;;;;;;;10.10;7.00;;;1.00;99.90;;;;;;5046814;28;20186;-76
2024/01/09 01:45:39;;;;;;;10.77;7.50;;;1.10;99.90;;;;;;5040929;28;20187;-79
2024/01/09 01:48:05;;;;;;;8.37;6.57;;;1.10;99.90;;;;;;5040176;28;20180;-78
2024/01/09 01:50:33;;;;;;;10.10;7.67;;;1.00;99.90;;;;;;5044787;28;20177;-79
2024/01/09 01:53:00;;;;;;;10.50;7.20;;;1.00;99.90;;;;;;5038205;28;20172;-80
2024/01/09 01:55:28;;;;;;;8.77;7.10;;;0.80;99.90;;;;;;5036047;28;20230;-78
2024/01/09 01:57:56;;;;;;;10.63;7.80;;;0.90;99.90;;;;;;5035673;28;20208;-79
2024/01/09 02:00:24;;;;;;;9.20;7.53;;;0.90;99.90;;;;;;5035721;28;20168;-80
2024/01/09 02:02:52;;;;;;;9.20;7.23;;;0.90;99.90;;;;;;5042241;28;20200;-78
2024/01/09 02:05:18;;;;;;;9.80;7.53;;;0.90;99.90;;;;;;5053121;28;20169;-77
2024/01/09 02:07:50;;;;;;;9.63;7.37;;;0.90;99.90;;;;;;5037261;28;20177;-77
2024/01/09 02:10:16;;;;;;;9.57;7.03;;;0.90;99.90;;;;;;5036259;28;20311;-75
2024/01/09 02:12:43;;;;;;;12.50;7.37;;;1.00;99.90;;;;;;5036953;28;20710;-76
2024/01/09 02:15:09;;;;;;;10.73;7.33;;;1.00;99.90;;;;;;5035880;28;20262;-78
2024/01/09 02:17:36;;;;;;;8.43;7.13;;;0.90;99.90;;;;;;5035302;28;20207;-76
2024/01/09 02:20:02;;;;;;;9.63;7.40;;;0.90;99.90;;;;;;5034559;28;20195;-78
2024/01/09 02:22:28;;;;;;;9.67;7.50;;;0.90;99.90;;;;;;5034695;28;20208;-79
2024/01/09 02:24:54;;;;;;;10.17;7.67;;;0.90;99.90;;;;;;5034938;28;20204;-78
2024/01/09 02:27:48;;;;;;;10.50;7.57;;;0.90;99.90;;;;;;5035416;28;20180;-76
2024/01/09 02:30:15;;;;;;;9.30;7.30;;;0.90;99.90;;;;;;5034527;28;20301;-81
2024/01/09 02:32:41;;;;;;;10.20;7.53;;;0.90;99.90;;;;;;5045623;28;20164;-80
2024/01/09 02:35:07;;;;;;;10.50;7.53;;;0.80;99.90;;;;;;5045073;28;20187;-79
2024/01/09 02:37:32;;;;;;;8.77;7.27;;;0.70;99.90;;;;;;5033853;28;20294;-78
2024/01/09 02:40:03;;;;;;;8.97;7.83;;;0.80;99.90;;;;;;5034720;28;20265;-79
2024/01/09 02:42:29;;;;;;;11.80;7.83;;;0.90;99.90;;;;;;5035063;28;20169;-79
2024/01/09 02:44:55;;;;;;;8.73;6.50;;;0.80;99.90;;;;;;5036207;28;20211;-79
2024/01/09 02:47:25;;;;;;;12.67;7.13;;;0.80;99.90;;;;;;5034642;28;20171;-77
2024/01/09 02:49:51;;;;;;;9.80;7.47;;;0.50;99.90;;;;;;5035154;28;20175;-75
2024/01/09 02:52:17;;;;;;;11.20;7.33;;;0.60;99.90;;;;;;5033689;28;20180;-77
2024/01/09 02:54:43;;;;;;;9.67;7.37;;;0.60;99.90;;;;;;5038106;28;20594;-77
2024/01/09 02:57:10;;;;;;;10.80;8.23;;;0.40;99.90;;;;;;5034998;28;20219;-78
2024/01/09 02:59:36;;;;;;;9.80;7.20;;;0.40;99.90;;;;;;5034464;28;20345;-79
2024/01/09 03:02:02;;;;;;;10.57;7.63;;;0.60;99.90;;;;;;5034364;28;20233;-79
2024/01/09 03:04:28;;;;;;;11.17;7.90;;;0.50;99.90;;;;;;5034962;28;20181;-80
2024/01/09 03:06:53;;;;;;;10.07;7.33;;;0.50;99.90;;;;;;5035120;28;20189;-79
2024/01/09 03:09:19;;;;;;;11.13;8.23;;;0.40;99.90;;;;;;5033840;28;20587;-79
2024/01/09 03:11:45;;;;;;;11.00;7.73;;;0.50;99.90;;;;;;5033875;28;20677;-77
2024/01/09 03:14:12;;;;;;;11.23;7.90;;;0.60;99.90;;;;;;5034369;28;20667;-76
2024/01/09 03:16:38;;;;;;;8.53;7.07;;;0.70;99.90;;;;;;5034416;28;20187;-76
2024/01/09 03:19:04;;;;;;;11.43;7.93;;;0.60;99.90;;;;;;5036132;28;20215;-77
2024/01/09 03:21:29;;;;;;;9.37;7.60;;;0.70;99.90;;;;;;5048100;28;20210;-79
2024/01/09 03:23:55;;;;;;;11.57;8.00;;;0.60;99.90;;;;;;5035696;28;20175;-78
2024/01/09 03:26:21;;;;;;;10.73;7.40;;;0.60;99.90;;;;;;5035033;28;20623;-79
2024/01/09 03:28:48;;;;;;;9.07;7.30;;;0.60;99.90;;;;;;5034210;28;20184;-78
2024/01/09 03:31:20;;;;;;;12.40;8.20;;;0.70;99.90;;;;;;5033696;28;20178;-78
2024/01/09 03:33:47;;;;;;;9.60;7.23;;;0.60;99.90;;;;;;5044857;28;20269;-77
2024/01/09 03:36:13;;;;;;;10.60;7.87;;;0.40;99.90;;;;;;5033288;28;20657;-78
2024/01/09 03:38:40;;;;;;;12.67;8.33;;;0.20;99.90;;;;;;5033917;28;20663;-79
2024/01/09 03:41:06;;;;;;;19.93;9.30;;;0.00;99.90;;;;;;5033715;28;20258;-78
2024/01/09 03:43:32;;;;;;;12.80;7.70;;;0.00;99.90;;;;;;5033571;28;20174;-78
2024/01/09 03:45:57;;;;;;;13.70;7.73;;;0.00;99.90;;;;;;5036739;28;20172;-79
2024/01/09 03:48:23;;;;;;;11.47;7.87;;;0.10;99.90;;;;;;5035953;28;20513;-77
2024/01/09 03:50:49;;;;;;;11.67;7.77;;;0.30;99.90;;;;;;5034000;28;20192;-79
2024/01/09 03:53:16;;;;;;;12.37;8.00;;;0.30;99.90;;;;;;5034757;28;20696;-80
2024/01/09 03:55:42;;;;;;;11.37;8.30;;;0.40;99.90;;;;;;5036809;28;20183;-79
2024/01/09 03:58:08;;;;;;;14.03;8.90;;;0.20;99.90;;;;;;5034232;28;20210;-77
2024/01/09 04:00:34;;;;;;;12.40;7.87;;;0.30;99.90;;;;;;5032992;28;20186;-76
2024/01/09 04:03:04;;;;;;;15.10;9.00;;;0.40;99.90;;;;;;5033325;28;20173;-79
2024/01/09 04:05:29;;;;;;;13.03;8.93;;;0.50;99.90;;;;;;5033104;28;20206;-79
2024/01/09 04:07:55;;;;;;;13.87;8.60;;;0.60;99.90;;;;;;5033372;28;20266;-80
2024/01/09 04:10:21;;;;;;;12.67;8.17;;;0.70;99.90;;;;;;5033078;28;20684;-80
2024/01/09 04:12:47;;;;;;;13.07;8.00;;;0.70;99.90;;;;;;5034116;28;20234;-78
2024/01/09 04:15:13;;;;;;;10.00;7.63;;;0.70;99.90;;;;;;5033236;28;20176;-77
2024/01/09 04:17:38;;;;;;;11.93;8.10;;;0.70;99.90;;;;;;5031431;28;20582;-76
2024/01/09 04:20:06;;;;;;;10.57;8.10;;;0.70;99.90;;;;;;5034024;28;20558;-80
2024/01/09 04:22:32;;;;;;;12.90;8.53;;;0.70;99.90;;;;;;5033268;28;20517;-78
2024/01/09 04:24:57;;;;;;;11.10;8.37;;;0.70;99.90;;;;;;5034052;28;20171;-77
2024/01/09 04:27:23;;;;;;;11.30;8.40;;;0.80;99.90;;;;;;5033290;28;20176;-76
2024/01/09 04:29:49;;;;;;;14.37;7.50;;;0.80;99.90;;;;;;5046592;28;20163;-78
2024/01/09 04:32:15;;;;;;;10.17;7.63;;;0.80;99.90;;;;;;5042706;28;20200;-78
2024/01/09 04:34:43;;;;;;;11.03;7.63;;;0.80;99.90;;;;;;5034825;28;20195;-77
2024/01/09 04:37:08;;;;;;;11.67;7.63;;;0.80;99.90;;;;;;5038595;28;20184;-77
2024/01/09 04:39:34;;;;;;;10.37;8.17;;;0.90;99.90;;;;;;5033445;28;20215;-79
2024/01/09 04:42:00;;;;;;;9.80;7.77;;;0.80;99.90;;;;;;5033851;28;20183;-79
2024/01/09 04:44:26;;;;;;;12.80;8.40;;;0.80;99.90;;;;;;5032696;28;20176;-77
2024/01/09 04:46:51;;;;;;;12.20;8.30;;;0.70;99.90;;;;;;5033173;28;20187;-79
2024/01/09 04:49:17;;;;;;;11.13;7.80;;;0.70;99.90;;;;;;5033781;28;20176;-79
2024/01/09 04:51:43;;;;;;;10.37;7.17;;;0.70;99.90;;;;;;5034174;28;20266;-77
2024/01/09 04:54:10;;;;;;;10.37;7.87;;;0.70;99.90;;;;;;5034211;28;20178;-75
2024/01/09 04:56:36;;;;;;;9.57;6.87;;;0.70;99.90;;;;;;5038786;28;20194;-80
2024/01/09 04:59:02;;;;;;;12.23;8.70;;;0.70;99.90;;;;;;5023809;28;20220;-78
2024/01/09 05:01:37;;;;;;;10.97;8.10;;;0.70;99.90;;;;;;5034988;28;20251;-80
2024/01/09 05:04:04;;;;;;;11.73;8.27;;;0.70;99.90;;;;;;5034844;28;20223;-76
2024/01/09 05:06:30;;;;;;;10.57;8.10;;;0.70;99.90;;;;;;5035960;28;20704;-78
2024/01/09 05:08:55;;;;;;;10.57;7.60;;;0.80;99.90;;;;;;5033337;28;20251;-80
2024/01/09 05:11:21;;;;;;;12.90;8.47;;;0.70;99.90;;;;;;5037013;28;20183;-79
2024/01/09 05:13:47;;;;;;;11.83;7.93;;;0.60;99.90;;;;;;5043466;28;20217;-78
2024/01/09 05:16:13;;;;;;;10.43;8.17;;;0.70;99.90;;;;;;5049390;28;20552;-78
2024/01/09 05:18:40;;;;;;;10.03;7.40;;;0.70;99.90;;;;;;5036963;28;20204;-78
2024/01/09 05:21:06;;;;;;;10.93;7.50;;;0.70;99.90;;;;;;5036129;28;20184;-80
2024/01/09 05:23:31;;;;;;;9.00;7.80;;;0.70;99.90;;;;;;5036430;28;20232;-77
2024/01/09 05:25:57;;;;;;;11.83;7.40;;;0.70;99.90;;;;;;5037931;28;20215;-77
2024/01/09 05:28:23;;;;;;;14.60;7.67;;;0.80;99.90;;;;;;5036107;28;20704;-77
2024/01/09 05:30:49;;;;;;;11.27;8.07;;;0.70;99.90;;;;;;5036180;28;20280;-79
2024/01/09 05:33:15;;;;;;;10.60;6.97;;;0.60;99.90;;;;;;5035673;28;20175;-77
2024/01/09 05:35:41;;;;;;;13.13;7.73;;;0.60;99.90;;;;;;5035923;28;20178;-77
2024/01/09 05:38:07;;;;;;;14.07;8.50;;;0.50;99.90;;;;;;5038502;28;20275;-77
2024/01/09 05:40:32;;;;;;;12.10;8.27;;;0.50;99.90;;;;;;5036848;28;20255;-76
2024/01/09 05:42:58;;;;;;;13.60;8.67;;;0.60;99.90;;;;;;5043313;28;20163;-77
2024/01/09 05:45:24;;;;;;;9.80;8.10;;;0.50;99.90;;;;;;5039587;28;20176;-78
2024/01/09 05:47:50;;;;;;;14.10;8.27;;;0.60;99.90;;;;;;5035116;28;20681;-77
2024/01/09 05:50:18;;;;;;;14.07;8.17;;;0.70;99.90;;;;;;5036702;28;20278;-77
2024/01/09 05:52:43;;;;;;;9.97;7.70;;;0.70;99.90;;;;;;5036182;28;20230;-77
2024/01/09 05:55:09;;;;;;;12.07;8.17;;;0.70;99.90;;;;;;5035330;28;20176;-77
2024/01/09 05:57:35;;;;;;;11.50;8.30;;;0.70;99.90;;;;;;5035258;28;20259;-79
2024/01/09 06:00:01;;;;;;;12.43;8.40;;;0.70;99.90;;;;;;5037369;28;20180;-78
2024/01/09 06:02:26;;;;;;;12.00;7.97;;;0.70;99.90;;;;;;5036672;28;20176;-78
2024/01/09 06:04:52;;;;;;;11.37;7.77;;;0.70;99.90;;;;;;5035276;28;20181;-78
2024/01/09 06:07:19;;;;;;;13.03;8.20;;;0.70;99.90;;;;;;5035327;28;20544;-76
2024/01/09 06:09:46;;;;;;;13.90;8.93;;;0.70;99.90;;;;;;5045506;28;20216;-78
2024/01/09 06:12:12;;;;;;;11.10;8.43;;;0.70;99.90;;;;;;5049813;28;20201;-77
2024/01/09 06:14:39;;;;;;;12.03;8.93;;;0.60;99.90;;;;;;5048744;28;20232;-77
2024/01/09 06:17:05;;;;;;;12.83;8.27;;;0.60;99.90;;;;;;5049349;28;20194;-75
2024/01/09 06:19:31;;;;;;;12.00;8.17;;;0.60;99.90;;;;;;5040863;28;20222;-76
2024/01/09 06:21:57;;;;;;;11.50;8.37;;;0.50;99.90;;;;;;5040764;28;20175;-77
2024/01/09 06:24:23;;;;;;;14.97;9.27;;;0.30;99.90;;;;;;5041359;28;20176;-78
2024/01/09 06:26:49;;;;;;;13.33;9.43;;;0.30;99.90;;;;;;5050664;28;20176;-77
2024/01/09 06:29:15;;;;;;;12.77;9.10;;;0.40;99.90;;;;;;5039261;28;20266;-80
2024/01/09 06:31:40;;;;;;;11.33;8.73;;;0.40;99.90;;;;;;5035280;28;20217;-75
2024/01/09 06:34:06;;;;;;;12.63;9.27;;;0.20;99.90;;;;;;5045680;28;20243;-77
2024/01/09 06:36:32;;;;;;;11.57;8.70;;;0.20;99.90;;;;;;5043280;28;20176;-79
2024/01/09 06:38:58;;;;;;;14.87;8.80;;;0.40;99.90;;;;;;5036582;28;20212;-79
2024/01/09 06:41:24;;;;;;;11.80;8.27;;;0.50;99.90;;;;;;5033686;28;20294;-78
2024/01/09 06:43:50;;;;;;;14.53;8.90;;;0.30;99.90;;;;;;5041345;28;20663;-78
2024/01/09 06:46:16;;;;;;;12.20;8.57;;;0.30;99.90;;;;;;5053562;28;20194;-79
2024/01/09 06:48:43;;;;;;;12.93;9.23;;;0.40;99.90;;;;;;5044616;28;20521;-77
2024/01/09 06:51:11;;;;;;;12.73;9.13;;;0.50;99.90;;;;;;5038835;28;20226;-76
2024/01/09 06:53:37;;;;;;;12.57;9.37;;;0.50;99.90;;;;;;5039242;28;20172;-78
2024/01/09 06:56:04;;;;;;;16.37;9.30;;;0.30;99.90;;;;;;5042171;28;20801;-77
2024/01/09 06:58:30;;;;;;;13.07;9.53;;;1.00;99.90;;;;;;5047670;28;20218;-78
2024/01/09 07:00:56;;;;;;;14.73;9.60;;;0.40;99.90;;;;;;5034905;28;20169;-78
2024/01/09 07:03:22;;;;;;;15.67;9.17;;;0.40;99.90;;;;;;5034757;28;20183;-76
2024/01/09 07:05:47;;;;;;;15.40;9.10;;;0.30;99.90;;;;;;5034855;28;20171;-76
2024/01/09 07:08:13;;;;;;;13.63;9.23;;;0.30;99.90;;;;;;5040494;28;20180;-76
2024/01/09 07:10:39;;;;;;;14.20;9.77;;;0.30;99.90;;;;;;5040438;28;20234;-77
2024/01/09 07:13:05;;;;;;;14.97;9.27;;;0.30;99.90;;;;;;5034345;28;20170;-79
2024/01/09 07:15:30;;;;;;;14.90;9.43;;;0.10;99.90;;;;;;5033902;28;20243;-77
2024/01/09 07:17:56;;;;;;;12.80;9.17;;;0.20;99.90;;;;;;5034170;28;20207;-76
2024/01/09 07:20:22;;;;;;;14.47;8.93;;;0.20;99.90;;;;;;5034131;28;20227;-79
2024/01/09 07:22:48;;;;;;;14.77;9.53;;;0.10;99.90;;;;;;5033780;28;20178;-76
2024/01/09 07:25:14;;;;;;;14.47;9.70;;;0.40;99.90;;;;;;5033936;28;20634;-78
2024/01/09 07:27:40;;;;;;;13.37;9.10;;;0.70;99.90;;;;;;5033489;28;20212;-78
2024/01/09 07:30:07;;;;;;;13.97;9.00;;;0.80;99.90;;;;;;5033602;28;20269;-78
2024/01/09 07:32:33;;;;;;;15.20;9.27;;;1.20;99.90;;;;;;5032774;28;20185;-75
2024/01/09 07:34:59;;;;;;;14.50;9.47;;;1.50;99.90;;;;;;5050237;28;20169;-76
2024/01/09 07:37:25;;;;;;;15.30;9.80;;;1.50;99.90;;;;;;5040927;28;20195;-76
2024/01/09 07:39:51;;;;;;;12.93;8.83;;;1.40;99.90;;;;;;5040355;28;20297;-78
2024/01/09 07:42:16;;;;;;;13.80;9.53;;;1.20;99.90;;;;;;5048506;28;20236;-77
2024/01/09 07:44:42;;;;;;;17.97;9.53;;;1.20;99.90;;;;;;5034065;28;20539;-78
2024/01/09 07:47:10;;;;;;;13.90;9.03;;;1.40;99.90;;;;;;5049699;28;20203;-78
2024/01/09 07:49:40;;;;;;;17.27;10.40;;;1.30;99.90;;;;;;5053678;28;20255;-79
2024/01/09 07:52:06;;;;;;;17.20;10.57;;;1.30;99.90;;;;;;5052970;28;20173;-77
2024/01/09 07:54:32;;;;;;;13.47;8.97;;;1.30;99.90;;;;;;5051774;28;20183;-79
2024/01/09 07:56:58;;;;;;;12.50;9.47;;;1.30;99.90;;;;;;5052476;28;20540;-77
2024/01/09 07:59:23;;;;;;;13.87;9.77;;;1.30;99.90;;;;;;5052516;28;20222;-80
2024/01/09 08:01:54;;;;;;;14.77;9.73;;;1.20;99.90;;;;;;5062673;28;20619;-78
2024/01/09 08:04:22;;;;;;;13.07;9.63;;;1.20;99.90;;;;;;5057436;28;20284;-77
2024/01/09 08:06:51;;;;;;;15.10;10.27;;;1.10;99.90;;;;;;5053166;28;20649;-78
2024/01/09 08:09:18;;;;;;;16.03;10.17;;;1.10;99.90;;;;;;5054483;28;20237;-77
2024/01/09 08:11:44;;;;;;;16.07;10.00;;;1.30;99.90;;;;;;5063997;28;20651;-79
2024/01/09 08:14:11;;;;;;;17.70;10.47;;;1.20;99.90;;;;;;5059678;28;20633;-78
2024/01/09 08:16:37;;;;;;;16.83;10.13;;;1.20;99.90;;;;;;5053191;28;20628;-77
2024/01/09 08:19:06;;;;;;;19.13;10.73;;;1.20;99.90;;;;;;5051640;28;20215;-75
2024/01/09 08:21:31;;;;;;;17.00;10.20;;;1.30;99.90;;;;;;5053346;28;20190;-77
2024/01/09 08:23:57;;;;;;;16.73;11.00;;;1.20;99.90;;;;;;5074298;28;20188;-75
2024/01/09 08:26:24;;;;;;;14.27;10.47;;;1.10;99.90;;;;;;5071453;28;20646;-80
2024/01/09 08:28:50;;;;;;;19.40;10.47;;;1.10;99.90;;;;;;5054329;28;20368;-77
2024/01/09 08:31:16;;;;;;;14.47;9.73;;;1.20;99.90;;;;;;5051875;28;20176;-78
2024/01/09 08:33:42;;;;;;;15.37;9.70;;;1.20;99.90;;;;;;5052231;28;20195;-77
2024/01/09 08:36:08;;;;;;;17.23;10.70;;;1.30;99.90;;;;;;5053205;28;20693;-78
2024/01/09 08:38:34;;;;;;;13.60;9.77;;;1.20;99.90;;;;;;5053659;28;20214;-76
2024/01/09 08:41:02;;;;;;;13.73;9.10;;;1.10;99.90;;;;;;5059380;28;20175;-75
2024/01/09 08:43:29;;;;;;;18.67;9.77;;;1.20;99.90;;;;;;5054160;28;20175;-77
2024/01/09 08:45:54;;;;;;;10.63;8.67;;;1.20;99.90;;;;;;5059547;28;20180;-78
2024/01/09 08:48:20;;;;;;;14.27;9.50;;;1.20;99.90;;;;;;5056482;28;20198;-76
2024/01/09 08:50:46;;;;;;;11.30;7.53;;;1.20;99.90;;;;;;5055886;28;20179;-77
2024/01/09 08:53:12;;;;;;;11.43;7.63;;;1.20;99.90;;;;;;5055508;28;20536;-78
2024/01/09 08:55:38;;;;;;;10.87;8.10;;;1.20;99.90;;;;;;5056485;28;20230;-78
2024/01/09 08:58:04;;;;;;;11.13;7.27;;;1.20;99.90;;;;;;5067898;28;20649;-79
2024/01/09 09:00:29;;;;;;;8.70;6.60;;;1.20;99.90;;;;;;5057075;28;20222;-79
2024/01/09 09:02:55;;;;;;;10.27;6.60;;;1.20;99.90;;;;;;5056311;28;20183;-79
2024/01/09 09:05:21;;;;;;;10.10;6.63;;;1.20;99.90;;;;;;5056814;28;20195;-78
2024/01/09 09:07:47;;;;;;;8.70;6.10;;;1.00;99.90;;;;;;5056624;28;20254;-79
2024/01/09 09:10:13;;;;;;;10.27;6.37;;;1.00;99.70;;;;;;5056766;28;20317;-81
2024/01/09 09:12:39;;;;;;;10.77;6.20;;;1.00;98.70;;;;;;5056632;28;20174;-80
2024/01/09 09:15:05;;;;;;;9.57;6.67;;;1.20;97.40;;;;;;5056334;28;20169;-80
2024/01/09 09:17:30;;;;;;;10.00;6.33;;;1.20;96.80;;;;;;5055982;28;20182;-79
2024/01/09 09:19:57;;;;;;;8.27;5.43;;;1.30;96.20;;;;;;5056179;28;20287;-77
2024/01/09 09:22:25;;;;;;;10.00;6.30;;;1.20;94.90;;;;;;5057778;28;20537;-77
2024/01/09 09:24:52;;;;;;;9.57;6.20;;;1.20;95.40;;;;;;5071004;28;20201;-79
2024/01/09 09:27:18;;;;;;;10.00;5.97;;;1.30;95.70;;;;;;5062659;28;20181;-78
2024/01/09 09:29:44;;;;;;;9.17;6.20;;;1.20;95.00;;;;;;5056153;28;20686;-80
2024/01/09 09:32:10;;;;;;;10.57;6.73;;;1.20;95.70;;;;;;5055614;28;20172;-79
2024/01/09 09:34:41;;;;;;;11.60;6.00;;;1.20;95.40;;;;;;5056148;28;20696;-79
2024/01/09 09:37:07;;;;;;;6.93;5.90;;;1.20;94.90;;;;;;5056176;28;20651;-79
2024/01/09 09:39:34;;;;;;;13.27;5.97;;;1.00;94.70;;;;;;5056190;28;20283;-77
2024/01/09 09:42:00;;;;;;;12.60;6.23;;;1.10;94.90;;;;;;5037833;28;20315;-78
2024/01/09 09:44:27;;;;;;;9.90;5.60;;;1.10;94.30;;;;;;5054686;28;20260;-78
2024/01/09 09:46:54;;;;;;;11.80;6.50;;;1.10;94.10;;;;;;5056554;28;20616;-75
2024/01/09 09:49:23;;;;;;;7.80;6.20;;;1.10;94.20;;;;;;5062060;28;20184;-77
2024/01/09 09:51:50;;;;;;;13.87;8.03;;;1.20;93.90;;;;;;5064836;28;20237;-78
2024/01/09 09:54:18;;;;;;;11.63;6.63;;;1.10;93.90;;;;;;5063687;28;20179;-80
2024/01/09 09:56:46;;;;;;;9.63;6.87;;;1.20;94.10;;;;;;5054681;28;20176;-77
2024/01/09 09:59:13;;;;;;;8.53;6.73;;;1.30;93.80;;;;;;5055473;28;20203;-78
2024/01/09 10:01:41;;;;;;;12.07;6.07;;;1.30;93.50;;;;;;5055312;28;20179;-80
2024/01/09 10:04:36;;;;;;;10.33;7.10;;;1.10;93.80;;;;;;5054612;28;20213;-78
2024/01/09 10:07:05;;;;;;;9.83;6.07;;;1.20;94.20;;;;;;5055449;28;20190;-77
2024/01/09 10:09:35;;;;;;;15.63;7.93;;;1.30;94.00;;;;;;5055184;28;20275;-77
2024/01/09 10:12:00;;;;;;;15.50;8.10;;;1.30;94.00;;;;;;5055791;28;20179;-80
2024/01/09 10:14:27;;;;;;;8.93;6.67;;;1.30;93.60;;;;;;5055586;28;20230;-77
2024/01/09 10:16:54;;;;;;;8.83;6.33;;;1.40;93.30;;;;;;5056728;28;20214;-78
2024/01/09 10:19:24;;;;;;;7.67;5.63;;;1.40;93.80;;;;;;5061704;28;20204;-79
2024/01/09 10:21:50;;;;;;;7.50;5.30;;;1.50;93.80;;;;;;5068746;28;20182;-80
2024/01/09 10:24:17;;;;;;;8.00;4.93;;;1.50;92.10;;;;;;5064731;28;20167;-80
2024/01/09 10:26:43;;;;;;;8.10;5.50;;;1.50;90.00;;;;;;5055837;28;20206;-78
2024/01/09 10:29:10;;;;;;;7.67;5.13;;;1.40;89.60;;;;;;5056937;28;20175;-82
2024/01/09 10:31:37;;;;;;;7.27;4.83;;;1.40;90.00;;;;;;5054363;28;20177;-80
2024/01/09 10:34:03;;;;;;;8.00;5.30;;;1.30;89.30;;;;;;5054779;28;20175;-77
2024/01/09 10:36:28;;;;;;;7.57;5.43;;;1.30;89.70;;;;;;5053452;28;20265;-77
2024/01/09 10:39:13;;;;;;;8.87;5.73;;;1.50;90.10;;;;;;5054479;28;20198;-76
2024/01/09 10:41:39;;;;;;;8.20;5.30;;;1.40;90.30;;;;;;5053744;28;20164;-80
2024/01/09 10:44:05;;;;;;;7.27;5.10;;;1.40;88.60;;;;;;5054491;28;20294;-80
2024/01/09 10:46:33;;;;;;;7.40;5.60;;;1.50;89.70;;;;;;5054650;28;20583;-78
2024/01/09 10:49:00;;;;;;;6.53;4.83;;;1.50;90.00;;;;;;5054601;28;20177;-78
2024/01/09 10:51:26;;;;;;;6.37;5.00;;;1.40;86.70;;;;;;5054605;28;20174;-78
2024/01/09 10:53:53;;;;;;;7.37;5.37;;;1.30;87.90;;;;;;5054576;28;20174;-79
2024/01/09 10:56:23;;;;;;;6.30;5.23;;;1.30;88.20;;;;;;5054712;28;20203;-78
2024/01/09 10:58:50;;;;;;;8.37;5.63;;;1.30;84.70;;;;;;5053990;28;20203;-77
2024/01/09 11:01:16;;;;;;;7.53;4.90;;;1.30;82.80;;;;;;5054607;28;20215;-78
2024/01/09 11:03:43;;;;;;;7.73;4.90;;;1.20;82.10;;;;;;5053108;28;20178;-77
2024/01/09 11:06:14;;;;;;;5.47;4.73;;;1.10;82.40;;;;;;5054196;28;20262;-80
2024/01/09 11:08:43;;;;;;;5.57;4.83;;;1.10;81.60;;;;;;5053690;28;20237;-79
2024/01/09 11:11:13;;;;;;;6.40;4.57;;;1.20;81.10;;;;;;5037462;28;20229;-80
2024/01/09 11:13:43;;;;;;;6.73;4.63;;;1.10;82.10;;;;;;5061805;28;20176;-77
2024/01/09 11:16:11;;;;;;;7.33;4.53;;;1.10;83.30;;;;;;5069426;28;20175;-78
2024/01/09 11:18:40;;;;;;;9.40;5.10;;;1.20;82.50;;;;;;5058684;28;20226;-79
2024/01/09 11:21:06;;;;;;;6.47;4.57;;;1.30;84.00;;;;;;5054693;28;20168;-77
2024/01/09 11:23:52;;;;;;;4.87;4.43;;;1.40;83.40;;;;;;5054975;28;20200;-78
2024/01/09 11:26:27;;;;;;;5.50;4.40;;;1.40;84.10;;;;;;5068018;28;20178;-77
2024/01/09 11:28:56;;;;;;;5.53;4.50;;;1.40;82.40;;;;;;5056487;28;20692;-77
2024/01/09 11:31:31;;;;;;;9.10;5.00;;;1.50;84.60;;;;;;5040897;28;20533;-78
2024/01/09 11:33:57;;;;;;;6.07;4.73;;;1.60;82.70;;;;;;5059774;28;20236;-76
2024/01/09 11:36:37;;;;;;;5.80;4.60;;;1.50;80.30;;;;;;5052571;28;20212;-77
2024/01/09 11:39:07;;;;;;;6.47;4.67;;;1.50;80.10;;;;;;5053070;28;20252;-76
2024/01/09 11:41:49;;;;;;;11.37;5.10;;;1.50;80.10;;;;;;5036068;28;20185;-79
2024/01/09 11:44:18;;;;;;;6.07;5.00;;;1.50;79.70;;;;;;5052187;28;20176;-80
2024/01/09 11:46:44;;;;;;;6.03;4.87;;;1.50;78.90;;;;;;5053986;28;20184;-78
2024/01/09 11:49:09;;;;;;;6.37;4.23;;;1.60;78.80;;;;;;5053739;28;20180;-79
2024/01/09 11:51:36;;;;;;;7.30;4.90;;;1.60;79.90;;;;;;5052622;28;20173;-78
2024/01/09 11:54:03;;;;;;;8.30;4.40;;;1.60;79.30;;;;;;5052479;28;20176;-81
2024/01/09 11:56:29;;;;;;;6.20;4.57;;;1.70;79.40;;;;;;5053333;28;20252;-78
2024/01/09 11:58:56;;;;;;;5.13;3.80;;;1.70;79.10;;;;;;5053502;28;20297;-79
2024/01/09 12:01:23;;;;;;;5.57;4.53;;;1.70;78.00;;;;;;5052745;28;20184;-80
2024/01/09 12:03:53;;;;;;;6.50;4.80;;;1.70;78.00;;;;;;5051853;28;20179;-80
2024/01/09 12:06:20;;;;;;;5.53;4.17;;;1.60;75.10;;;;;;5052979;28;20175;-79
2024/01/09 12:08:46;;;;;;;6.37;4.20;;;1.60;74.20;;;;;;5051575;28;20181;-77
2024/01/09 12:11:12;;;;;;;5.60;4.30;;;1.40;75.10;;;;;;5054042;28;20256;-77
2024/01/09 12:13:38;;;;;;;6.30;4.07;;;1.40;76.40;;;;;;5053300;28;20190;-78
2024/01/09 12:16:17;;;;;;;4.60;4.07;;;1.40;75.60;;;;;;5067152;28;20226;-78
2024/01/09 12:18:52;;;;;;;6.17;4.37;;;1.30;75.50;;;;;;5056588;28;20558;-76
2024/01/09 12:21:19;;;;;;;5.37;4.60;;;1.30;76.80;;;;;;5061733;28;20198;-81
2024/01/09 12:23:45;;;;;;;8.17;4.80;;;1.40;78.90;;;;;;5062043;28;20242;-79
2024/01/09 12:26:13;;;;;;;5.43;4.60;;;1.30;77.50;;;;;;5062749;28;20180;-79
2024/01/09 12:28:39;;;;;;;5.73;4.50;;;1.30;77.40;;;;;;5059183;28;20164;-76
2024/01/09 12:31:09;;;;;;;4.93;3.93;;;1.30;77.60;;;;;;5040685;28;20179;-76
2024/01/09 12:33:37;;;;;;;7.87;4.40;;;1.30;75.70;;;;;;5057273;28;20178;-78
2024/01/09 12:36:03;;;;;;;6.60;4.20;;;1.30;76.00;;;;;;5058069;28;20183;-75
2024/01/09 12:38:31;;;;;;;5.43;4.50;;;1.30;76.00;;;;;;5060758;28;20238;-76
2024/01/09 12:41:01;;;;;;;4.77;4.30;;;1.30;75.40;;;;;;5085512;28;20176;-78
2024/01/09 12:43:28;;;;;;;4.40;3.83;;;1.20;76.80;;;;;;5059889;28;20226;-77
2024/01/09 12:46:01;;;;;;;5.00;4.03;;;1.30;76.70;;;;;;5056537;28;20210;-75
2024/01/09 12:48:31;;;;;;;4.67;3.97;;;1.30;76.50;;;;;;5036333;28;20186;-78